createdAt,value
2022-08-05T00:00:19.192Z,75.10
2022-08-05T00:01:22.845Z,74.90
2022-08-05T00:02:19.247Z,75.40
2022-08-05T00:03:18.188Z,75.70
2022-08-05T00:04:18.126Z,75.80
2022-08-05T00:06:02.723Z,76.10
2022-08-05T00:06:29.384Z,75.60
2022-08-05T00:07:26.935Z,76.30
2022-08-05T00:08:32.498Z,76.10
2022-08-05T00:09:19.544Z,76.00
2022-08-05T00:10:18.070Z,77.09
2022-08-05T00:11:20.687Z,77.39
2022-08-05T00:12:19.090Z,77.33
2022-08-05T00:13:18.659Z,77.59
2022-08-05T00:14:17.977Z,77.39
2022-08-05T00:15:56.074Z,77.50
2022-08-05T00:16:19.003Z,78.23
2022-08-05T00:17:20.217Z,78.63
2022-08-05T00:18:21.823Z,79.63
2022-08-05T00:19:17.882Z,79.72
2022-08-05T00:20:20.304Z,79.72
2022-08-05T00:21:17.880Z,79.82
2022-08-05T00:22:17.972Z,79.43
2022-08-05T00:23:17.832Z,79.52
2022-08-05T00:24:24.248Z,79.33
2022-08-05T00:25:18.804Z,79.22
2022-08-05T00:26:17.805Z,79.27
2022-08-05T00:27:17.764Z,79.13
2022-08-05T00:28:21.094Z,79.72
2022-08-05T00:29:18.725Z,79.93
2022-08-05T00:30:17.718Z,79.57
2022-08-05T00:31:54.183Z,79.96
2022-08-05T00:32:18.704Z,79.72
2022-08-05T00:34:55.990Z,79.93
2022-08-05T00:34:56.057Z,80.36
2022-08-05T00:35:20.226Z,80.36
2022-08-05T00:37:11.022Z,80.56
2022-08-05T00:37:18.803Z,80.46
2022-08-05T00:38:17.579Z,80.36
2022-08-05T00:39:18.609Z,80.66
2022-08-05T00:40:17.624Z,81.26
2022-08-05T00:41:18.552Z,80.86
2022-08-05T00:42:31.515Z,80.56
2022-08-05T00:43:18.482Z,80.46
2022-08-05T00:44:17.468Z,80.66
2022-08-05T00:45:17.477Z,80.66
2022-08-05T00:46:18.444Z,80.26
2022-08-05T00:47:18.453Z,80.36
2022-08-05T00:48:17.406Z,80.50
2022-08-05T00:49:17.427Z,80.76
2022-08-05T00:50:17.387Z,80.66
2022-08-05T00:51:51.954Z,80.30
2022-08-05T00:52:18.377Z,80.70
2022-08-05T00:54:00.302Z,80.40
2022-08-05T00:54:18.439Z,80.20
2022-08-05T00:55:17.326Z,79.96
2022-08-05T00:56:17.486Z,80.16
2022-08-05T00:57:21.276Z,79.90
2022-08-05T00:58:17.258Z,79.30
2022-08-05T00:59:17.312Z,79.66
2022-08-05T01:00:17.259Z,79.60
2022-08-05T01:01:41.973Z,79.80
2022-08-05T01:02:18.238Z,79.10
2022-08-05T01:03:22.567Z,79.80
2022-08-05T01:04:20.233Z,79.36
2022-08-05T01:05:18.167Z,79.50
2022-08-05T01:06:17.111Z,79.50
2022-08-05T01:07:17.995Z,79.70
2022-08-05T01:08:30.624Z,79.20
2022-08-05T01:09:20.138Z,79.90
2022-08-05T01:10:17.084Z,79.10
2022-08-05T01:11:21.821Z,79.00
2022-08-05T01:12:19.105Z,78.70
2022-08-05T01:13:22.249Z,78.70
2022-08-05T01:14:18.015Z,78.70
2022-08-05T01:15:35.092Z,79.10
2022-08-05T01:16:20.934Z,78.70
2022-08-05T01:17:17.981Z,78.90
2022-08-05T01:18:16.942Z,79.40
2022-08-05T01:19:16.921Z,79.30
2022-08-05T01:20:16.902Z,79.50
2022-08-05T01:21:22.929Z,79.74
2022-08-05T01:22:18.872Z,80.60
2022-08-05T01:23:23.429Z,79.90
2022-08-05T01:24:17.836Z,80.60
2022-08-05T01:25:16.826Z,80.44
2022-08-05T01:26:16.859Z,80.64
2022-08-05T01:27:19.289Z,80.64
2022-08-05T01:28:16.791Z,80.94
2022-08-05T01:29:16.761Z,80.44
2022-08-05T01:30:18.988Z,80.83
2022-08-05T01:31:17.773Z,80.83
2022-08-05T01:32:18.711Z,80.94
2022-08-05T01:33:19.740Z,80.54
2022-08-05T01:34:17.761Z,80.94
2022-08-05T01:35:51.030Z,81.13
2022-08-05T01:36:17.682Z,80.74
2022-08-05T01:37:24.483Z,81.98
2022-08-05T01:38:27.435Z,81.63
2022-08-05T01:39:45.664Z,81.27
2022-08-05T01:40:18.030Z,81.57
2022-08-05T01:41:16.597Z,81.98
2022-08-05T01:42:16.540Z,82.37
2022-08-05T01:43:22.325Z,82.57
2022-08-05T01:44:17.532Z,82.37
2022-08-05T01:45:16.620Z,82.77
2022-08-05T01:46:42.488Z,82.61
2022-08-05T01:47:17.474Z,82.57
2022-08-05T01:48:16.454Z,83.37
2022-08-05T01:49:24.202Z,83.37
2022-08-05T01:50:17.458Z,84.47
2022-08-05T01:51:16.451Z,84.41
2022-08-05T01:52:17.694Z,84.51
2022-08-05T01:53:16.446Z,84.07
2022-08-05T01:54:18.055Z,84.11
2022-08-05T01:55:16.343Z,84.31
2022-08-05T01:58:10.383Z,84.27
2022-08-05T01:58:11.158Z,84.71
2022-08-05T01:58:17.309Z,84.21
2022-08-05T01:59:16.269Z,84.21
2022-08-05T02:00:16.279Z,84.91
2022-08-05T02:01:16.304Z,85.21
2022-08-05T02:02:17.284Z,85.11
2022-08-05T02:03:16.378Z,85.21
2022-08-05T02:04:17.189Z,85.05
2022-08-05T02:05:16.235Z,85.81
2022-08-05T02:06:37.082Z,85.95
2022-08-05T02:07:21.883Z,86.25
2022-08-05T02:08:31.240Z,86.55
2022-08-05T02:09:17.114Z,86.85
2022-08-05T02:10:17.313Z,86.85
2022-08-05T02:11:16.057Z,86.99
2022-08-05T02:12:17.090Z,87.05
2022-08-05T02:13:16.809Z,87.55
2022-08-05T02:14:17.034Z,87.59
2022-08-05T02:15:19.567Z,87.49
2022-08-05T02:16:16.335Z,86.95
2022-08-05T02:17:17.020Z,87.05
2022-08-05T02:18:32.054Z,87.15
2022-08-05T02:19:16.944Z,86.49
2022-08-05T02:20:15.922Z,86.19
2022-08-05T02:21:15.941Z,86.09
2022-08-05T02:22:25.633Z,87.09
2022-08-05T02:23:16.885Z,86.69
2022-08-05T02:24:17.898Z,86.49
2022-08-05T02:25:15.862Z,87.19
2022-08-05T02:26:17.078Z,86.79
2022-08-05T02:27:15.845Z,87.89
2022-08-05T02:28:15.789Z,87.73
2022-08-05T02:29:21.694Z,88.57
2022-08-05T02:30:16.751Z,88.78
2022-08-05T02:31:15.742Z,90.58
2022-08-05T02:32:23.667Z,91.66
2022-08-05T02:33:16.716Z,91.56
2022-08-05T02:34:16.742Z,92.51
2022-08-05T02:35:18.954Z,92.51
2022-08-05T02:36:16.664Z,93.16
2022-08-05T02:37:15.801Z,93.55
2022-08-05T02:38:19.518Z,94.90
2022-08-05T02:39:15.638Z,95.41
2022-08-05T02:40:16.629Z,95.10
2022-08-05T02:41:17.878Z,96.15
2022-08-05T02:42:25.694Z,96.06
2022-08-05T02:43:16.547Z,95.05
2022-08-05T02:44:15.574Z,94.90
2022-08-05T02:45:15.543Z,94.70
2022-08-05T02:46:16.330Z,95.00
2022-08-05T02:47:15.594Z,95.30
2022-08-05T02:48:15.460Z,95.00
2022-08-05T02:49:15.488Z,93.89
2022-08-05T02:50:15.438Z,92.69
2022-08-05T02:51:15.475Z,92.99
2022-08-05T02:52:30.262Z,92.24
2022-08-05T02:53:19.362Z,92.08
2022-08-05T02:54:36.039Z,92.24
2022-08-05T02:55:17.549Z,91.54
2022-08-05T02:56:18.900Z,90.23
2022-08-05T02:58:09.162Z,90.23
2022-08-05T02:58:16.290Z,90.73
2022-08-05T02:59:15.271Z,90.84
2022-08-05T03:00:15.270Z,91.24
2022-08-05T03:01:15.332Z,90.94
2022-08-05T03:02:15.240Z,91.19
2022-08-05T03:03:15.196Z,91.44
2022-08-05T03:04:16.184Z,91.44
2022-08-05T03:05:15.208Z,90.73
2022-08-05T03:06:56.561Z,90.49
2022-08-05T03:07:40.627Z,90.89
2022-08-05T03:08:16.538Z,90.49
2022-08-05T03:09:15.937Z,90.69
2022-08-05T03:10:16.087Z,90.29
2022-08-05T03:11:53.837Z,90.39
2022-08-05T03:12:16.075Z,90.59
2022-08-05T03:13:16.732Z,90.49
2022-08-05T03:14:15.027Z,91.50
2022-08-05T03:15:15.032Z,91.19
2022-08-05T03:16:15.810Z,90.49
2022-08-05T03:17:14.993Z,91.54
2022-08-05T03:18:14.944Z,91.03
2022-08-05T03:19:20.262Z,91.50
2022-08-05T03:20:15.920Z,91.94
2022-08-05T03:21:15.887Z,90.79
2022-08-05T03:22:16.705Z,90.89
2022-08-05T03:23:14.860Z,91.44
2022-08-05T03:24:14.834Z,91.74
2022-08-05T03:26:04.027Z,91.39
2022-08-05T03:26:32.061Z,91.50
2022-08-05T03:27:16.029Z,91.50
2022-08-05T03:28:14.759Z,91.89
2022-08-05T03:29:17.422Z,91.84
2022-08-05T03:30:14.737Z,91.84
2022-08-05T03:31:25.883Z,92.50
2022-08-05T03:32:15.735Z,92.44
2022-08-05T03:33:14.689Z,93.00
2022-08-05T03:34:14.665Z,93.00
2022-08-05T03:35:14.689Z,92.90
2022-08-05T03:36:14.651Z,92.35
2022-08-05T03:37:14.654Z,92.40
2022-08-05T03:38:14.716Z,91.85
2022-08-05T03:39:26.565Z,91.55
2022-08-05T03:40:31.212Z,91.25
2022-08-05T03:41:15.556Z,91.25
2022-08-05T03:42:14.555Z,91.15
2022-08-05T03:43:58.376Z,91.45
2022-08-05T03:44:19.942Z,91.55
2022-08-05T03:45:21.957Z,91.45
2022-08-05T03:46:15.476Z,91.75
2022-08-05T03:47:14.511Z,91.96
2022-08-05T03:48:14.436Z,91.15
2022-08-05T03:49:15.432Z,91.45
2022-08-05T03:50:14.406Z,91.65
2022-08-05T03:52:38.008Z,91.11
2022-08-05T03:52:39.423Z,91.65
2022-08-05T03:55:00.134Z,91.45
2022-08-05T03:55:50.745Z,91.15
2022-08-05T03:56:01.855Z,91.65
2022-08-05T03:56:18.009Z,91.11
2022-08-05T03:57:16.515Z,91.91
2022-08-05T03:58:14.296Z,91.20
2022-08-05T03:59:14.253Z,91.31
2022-08-05T04:00:15.566Z,91.31
2022-08-05T04:01:14.301Z,91.61
2022-08-05T04:02:14.989Z,91.11
2022-08-05T04:03:28.183Z,91.20
2022-08-05T04:04:15.184Z,91.41
2022-08-05T04:05:15.186Z,91.41
2022-08-05T04:06:14.142Z,91.47
2022-08-05T04:07:14.120Z,91.47
2022-08-05T04:08:14.931Z,91.71
2022-08-05T04:09:20.101Z,91.81
2022-08-05T04:10:15.069Z,90.70
2022-08-05T04:11:14.050Z,90.91
2022-08-05T04:12:23.523Z,91.66
2022-08-05T04:13:15.046Z,90.56
2022-08-05T04:14:18.057Z,91.86
2022-08-05T04:15:15.486Z,90.66
2022-08-05T04:16:14.367Z,90.56
2022-08-05T04:17:13.986Z,90.86
2022-08-05T04:18:20.598Z,90.26
2022-08-05T04:19:15.910Z,90.36
2022-08-05T04:20:14.164Z,90.06
2022-08-05T04:21:13.886Z,90.06
2022-08-05T04:22:14.963Z,90.86
2022-08-05T04:23:16.220Z,89.96
2022-08-05T04:24:18.819Z,90.36
2022-08-05T04:25:14.807Z,90.46
2022-08-05T04:26:13.872Z,89.76
2022-08-05T04:27:13.801Z,90.56
2022-08-05T04:28:13.836Z,89.66
2022-08-05T04:29:14.376Z,90.11
2022-08-05T04:30:13.729Z,90.20
2022-08-05T04:31:13.725Z,91.75
2022-08-05T04:32:13.818Z,91.85
2022-08-05T04:33:14.712Z,92.20
2022-08-05T04:34:31.144Z,92.80
2022-08-05T04:35:19.684Z,93.55
2022-08-05T04:36:45.871Z,93.15
2022-08-05T04:37:14.681Z,93.85
2022-08-05T04:38:15.461Z,93.15
2022-08-05T04:39:13.675Z,93.35
2022-08-05T04:40:13.557Z,92.94
2022-08-05T04:41:14.556Z,93.55
2022-08-05T04:42:13.545Z,93.70
2022-08-05T04:43:16.460Z,93.70
2022-08-05T04:44:13.521Z,93.00
2022-08-05T04:45:14.121Z,93.40
2022-08-05T04:46:14.466Z,92.80
2022-08-05T04:47:20.023Z,93.26
2022-08-05T04:48:16.425Z,92.91
2022-08-05T04:49:14.923Z,92.71
2022-08-05T04:50:13.387Z,91.61
2022-08-05T04:51:14.454Z,91.81
2022-08-05T04:52:13.441Z,91.71
2022-08-05T04:53:13.422Z,91.81
2022-08-05T04:54:13.353Z,91.41
2022-08-05T04:55:14.497Z,91.51
2022-08-05T04:56:33.657Z,91.61
2022-08-05T04:57:14.330Z,91.11
2022-08-05T04:58:13.269Z,91.01
2022-08-05T04:59:26.636Z,91.41
2022-08-05T05:00:14.224Z,91.01
2022-08-05T05:01:13.279Z,91.01
2022-08-05T05:02:41.518Z,91.71
2022-08-05T05:03:14.227Z,90.50
2022-08-05T05:04:14.158Z,90.20
2022-08-05T05:05:16.896Z,90.11
2022-08-05T05:06:40.090Z,90.66
2022-08-05T05:07:15.884Z,90.20
2022-08-05T05:08:14.429Z,90.11
2022-08-05T05:09:17.730Z,90.06
2022-08-05T05:10:13.083Z,90.66
2022-08-05T05:11:15.248Z,90.56
2022-08-05T05:12:13.113Z,90.66
2022-08-05T05:13:13.023Z,89.86
2022-08-05T05:14:15.968Z,89.96
2022-08-05T05:15:12.960Z,90.16
2022-08-05T05:16:13.049Z,89.86
2022-08-05T05:17:12.985Z,89.86
2022-08-05T05:18:12.911Z,90.77
2022-08-05T05:19:23.673Z,89.56
2022-08-05T05:20:14.867Z,90.36
2022-08-05T05:21:12.848Z,89.96
2022-08-05T05:22:22.683Z,89.86
2022-08-05T05:23:19.714Z,90.77
2022-08-05T05:24:13.815Z,90.26
2022-08-05T05:25:16.935Z,90.26
2022-08-05T05:26:12.773Z,90.56
2022-08-05T05:27:12.782Z,89.96
2022-08-05T05:28:12.738Z,90.16
2022-08-05T05:29:14.919Z,90.66
2022-08-05T05:30:15.718Z,90.86
2022-08-05T05:31:13.722Z,90.77
2022-08-05T05:32:12.822Z,90.77
2022-08-05T05:33:17.225Z,90.26
2022-08-05T05:34:12.683Z,90.36
2022-08-05T05:35:12.660Z,90.36
2022-08-05T05:36:13.613Z,89.86
2022-08-05T05:37:12.622Z,89.82
2022-08-05T05:38:13.390Z,89.32
2022-08-05T05:39:12.578Z,89.12
2022-08-05T05:40:12.545Z,88.03
2022-08-05T05:41:12.552Z,87.59
2022-08-05T05:42:12.520Z,87.15
2022-08-05T05:43:12.524Z,84.91
2022-08-05T05:44:46.015Z,84.27
2022-08-05T05:45:14.235Z,84.23
2022-08-05T05:46:17.552Z,83.07
2022-08-05T05:47:22.204Z,83.47
2022-08-05T05:48:16.027Z,83.97
2022-08-05T05:49:13.529Z,82.67
2022-08-05T05:50:16.265Z,82.91
2022-08-05T05:51:15.517Z,82.61
2022-08-05T05:52:13.369Z,82.81
2022-08-05T05:53:22.628Z,83.31
2022-08-05T05:54:13.348Z,81.95
2022-08-05T05:55:13.306Z,82.35
2022-08-05T05:56:12.329Z,82.95
2022-08-05T05:57:13.896Z,83.99
2022-08-05T05:58:13.327Z,84.43
2022-08-05T05:59:12.240Z,85.03
2022-08-05T06:00:12.241Z,85.27
2022-08-05T06:01:15.219Z,86.37
2022-08-05T06:02:12.184Z,86.77
2022-08-05T06:03:39.855Z,86.32
2022-08-05T06:04:14.365Z,87.21
2022-08-05T06:05:16.758Z,88.02
2022-08-05T06:06:13.129Z,87.86
2022-08-05T06:07:12.155Z,87.96
2022-08-05T06:08:12.146Z,88.56
2022-08-05T06:09:17.346Z,88.36
2022-08-05T06:10:13.093Z,88.06
2022-08-05T06:11:12.053Z,87.86
2022-08-05T06:12:12.228Z,88.26
2022-08-05T06:13:12.055Z,87.71
2022-08-05T06:14:11.999Z,87.71
2022-08-05T06:15:16.556Z,87.82
2022-08-05T06:16:29.970Z,88.02
2022-08-05T06:17:52.351Z,87.62
2022-08-05T06:18:12.949Z,88.12
2022-08-05T06:19:12.557Z,88.32
2022-08-05T06:20:18.818Z,87.92
2022-08-05T06:21:16.659Z,88.02
2022-08-05T06:22:12.896Z,87.52
2022-08-05T06:23:12.865Z,88.02
2022-08-05T06:24:12.783Z,88.71
2022-08-05T06:25:59.785Z,88.48
2022-08-05T06:26:20.817Z,88.12
2022-08-05T06:28:09.497Z,87.62
2022-08-05T06:28:21.080Z,87.27
2022-08-05T06:29:26.475Z,86.57
2022-08-05T06:30:17.907Z,86.82
2022-08-05T06:31:17.916Z,86.57
2022-08-05T06:32:24.902Z,87.71
2022-08-05T06:33:12.691Z,87.68
2022-08-05T06:34:12.697Z,87.41
2022-08-05T06:35:15.499Z,88.07
2022-08-05T06:36:12.638Z,87.41
2022-08-05T06:37:12.348Z,87.52
2022-08-05T06:38:12.035Z,87.02
2022-08-05T06:39:11.637Z,87.57
2022-08-05T06:40:11.759Z,87.37
2022-08-05T06:41:11.714Z,87.77
2022-08-05T06:42:11.617Z,87.48
2022-08-05T06:43:51.458Z,87.18
2022-08-05T06:44:12.518Z,87.18
2022-08-05T06:45:21.336Z,87.37
2022-08-05T06:46:12.478Z,87.18
2022-08-05T06:47:30.016Z,87.57
2022-08-05T06:48:50.333Z,88.07
2022-08-05T06:49:12.434Z,87.52
2022-08-05T06:50:11.425Z,88.62
2022-08-05T06:51:25.286Z,88.71
2022-08-05T06:52:38.282Z,88.62
2022-08-05T06:53:27.918Z,88.62
2022-08-05T06:54:19.075Z,87.82
2022-08-05T06:55:12.411Z,88.52
2022-08-05T06:56:16.270Z,88.62
2022-08-05T06:57:56.598Z,88.71
2022-08-05T06:58:19.999Z,88.48
2022-08-05T06:59:12.241Z,87.98
2022-08-05T07:00:11.236Z,87.23
2022-08-05T07:01:11.280Z,85.73
2022-08-05T07:02:11.220Z,86.03
2022-08-05T07:03:11.224Z,85.63
2022-08-05T07:04:11.192Z,86.23
2022-08-05T07:05:14.156Z,86.93
2022-08-05T07:06:14.403Z,85.43
2022-08-05T07:07:11.144Z,84.49
2022-08-05T07:08:11.274Z,85.19
2022-08-05T07:09:11.102Z,85.29
2022-08-05T07:10:11.088Z,84.35
2022-08-05T07:11:15.323Z,84.05
2022-08-05T07:12:11.045Z,84.45
2022-08-05T07:13:11.072Z,83.45
2022-08-05T07:14:20.143Z,82.91
2022-08-05T07:15:11.995Z,82.37
2022-08-05T07:16:12.173Z,82.43
2022-08-05T07:17:58.679Z,81.34
2022-08-05T07:18:14.633Z,81.90
2022-08-05T07:19:16.105Z,80.90
2022-08-05T07:20:32.562Z,80.80
2022-08-05T07:21:12.899Z,80.40
2022-08-05T07:22:10.870Z,80.20
2022-08-05T07:23:25.924Z,80.50
2022-08-05T07:24:11.832Z,81.00
2022-08-05T07:25:55.682Z,80.83
2022-08-05T07:26:13.372Z,81.13
2022-08-05T07:27:10.811Z,82.23
2022-08-05T07:28:11.982Z,82.23
2022-08-05T07:29:12.776Z,82.64
2022-08-05T07:30:22.849Z,84.53
2022-08-05T07:31:11.715Z,83.99
2022-08-05T07:32:10.700Z,84.29
2022-08-05T07:33:16.443Z,84.45
2022-08-05T07:34:11.677Z,84.35
2022-08-05T07:36:04.400Z,83.25
2022-08-05T07:36:20.186Z,81.42
2022-08-05T07:37:11.867Z,80.92
2022-08-05T07:38:12.302Z,81.02
2022-08-05T07:39:24.842Z,81.18
2022-08-05T07:40:31.483Z,81.18
2022-08-05T07:42:08.122Z,81.44
2022-08-05T07:42:14.935Z,80.00
2022-08-05T07:43:19.989Z,79.33
2022-08-05T07:44:18.594Z,78.70
2022-08-05T07:45:11.548Z,77.77
2022-08-05T07:46:18.209Z,76.04
2022-08-05T07:47:11.502Z,75.05
2022-08-05T07:48:10.488Z,75.29
2022-08-05T07:49:10.444Z,75.38
2022-08-05T07:50:10.457Z,76.12
2022-08-05T07:51:23.520Z,76.81
2022-08-05T07:52:11.403Z,75.74
2022-08-05T07:53:10.416Z,75.71
2022-08-05T07:54:11.440Z,74.82
2022-08-05T07:55:44.405Z,73.38
2022-08-05T07:56:39.035Z,71.53
2022-08-05T07:57:41.711Z,69.56
2022-08-05T07:58:11.434Z,69.16
2022-08-05T07:59:11.286Z,70.84
2022-08-05T08:00:11.352Z,72.36
2022-08-05T08:01:12.087Z,72.80
2022-08-05T08:02:15.237Z,74.06
2022-08-05T08:03:15.046Z,75.09
2022-08-05T08:04:10.191Z,75.98
2022-08-05T08:05:11.405Z,76.42
2022-08-05T08:06:10.229Z,76.32
2022-08-05T08:07:10.164Z,77.05
2022-08-05T08:08:12.181Z,77.34
2022-08-05T08:09:10.140Z,77.48
2022-08-05T08:10:10.126Z,78.02
2022-08-05T08:11:10.084Z,78.31
2022-08-05T08:12:27.272Z,79.55
2022-08-05T08:13:12.165Z,79.99
2022-08-05T08:14:10.049Z,79.58
2022-08-05T08:15:15.331Z,79.88
2022-08-05T08:16:35.617Z,80.58
2022-08-05T08:17:11.005Z,79.55
2022-08-05T08:18:14.254Z,78.52
2022-08-05T08:19:37.924Z,78.08
2022-08-05T08:20:43.276Z,76.85
2022-08-05T08:21:16.009Z,75.72
2022-08-05T08:22:10.985Z,75.82
2022-08-05T08:24:00.120Z,75.92
2022-08-05T08:24:14.078Z,75.95
2022-08-05T08:25:16.323Z,75.18
2022-08-05T08:26:10.872Z,73.10
2022-08-05T08:27:09.871Z,71.14
2022-08-05T08:28:11.452Z,69.82
2022-08-05T08:29:45.130Z,66.85
2022-08-05T08:30:28.589Z,64.62
2022-08-05T08:31:15.090Z,64.62
2022-08-05T08:32:10.982Z,64.45
2022-08-05T08:33:13.939Z,65.93
2022-08-05T08:34:09.756Z,65.01
2022-08-05T08:35:13.716Z,65.83
2022-08-05T08:37:11.709Z,66.33
2022-08-05T08:38:11.835Z,67.05
2022-08-05T08:39:15.360Z,66.09
2022-08-05T08:40:10.654Z,67.77
2022-08-05T08:41:09.685Z,66.75
2022-08-05T08:42:33.964Z,66.92
2022-08-05T08:44:57.902Z,66.75
2022-08-05T08:45:18.645Z,67.08
2022-08-05T08:45:24.265Z,66.95
2022-08-05T08:46:15.624Z,66.85
2022-08-05T08:47:22.249Z,66.46
2022-08-05T08:48:22.568Z,67.05
2022-08-05T08:50:22.203Z,66.42
2022-08-05T08:50:30.935Z,65.57
2022-08-05T08:51:54.514Z,64.91
2022-08-05T08:52:23.359Z,64.91
2022-08-05T08:53:12.352Z,64.36
2022-08-05T08:54:09.490Z,63.73
2022-08-05T08:55:13.509Z,64.48
2022-08-05T08:56:10.409Z,66.22
2022-08-05T08:57:11.420Z,66.78
2022-08-05T08:58:09.411Z,68.33
2022-08-05T08:59:19.409Z,69.06
2022-08-05T09:00:11.364Z,69.69
2022-08-05T09:01:11.023Z,71.31
2022-08-05T09:02:10.338Z,71.41
2022-08-05T09:03:09.381Z,72.53
2022-08-05T09:04:10.769Z,73.16
2022-08-05T09:05:16.556Z,73.76
2022-08-05T09:06:11.541Z,75.29
2022-08-05T09:07:10.700Z,74.85
2022-08-05T09:08:11.309Z,73.90
2022-08-05T09:09:09.266Z,75.02
2022-08-05T09:10:09.239Z,76.06
2022-08-05T09:11:13.624Z,77.09
2022-08-05T09:12:20.798Z,77.28
2022-08-05T09:13:11.180Z,77.88
2022-08-05T09:14:57.859Z,78.22
2022-08-05T09:15:10.157Z,78.95
2022-08-05T09:16:09.190Z,79.05
2022-08-05T09:17:41.392Z,79.05
2022-08-05T09:18:10.165Z,79.15
2022-08-05T09:19:09.086Z,79.55
2022-08-05T09:20:09.077Z,79.45
2022-08-05T09:21:11.767Z,78.52
2022-08-05T09:22:23.144Z,79.41
2022-08-05T09:23:10.050Z,79.08
2022-08-05T09:24:10.135Z,77.75
2022-08-05T09:25:23.702Z,76.91
2022-08-05T09:26:09.997Z,74.88
2022-08-05T09:27:08.951Z,73.39
2022-08-05T09:28:08.957Z,73.19
2022-08-05T09:29:09.102Z,73.93
2022-08-05T09:30:08.936Z,75.21
2022-08-05T09:31:43.562Z,75.05
2022-08-05T09:32:41.004Z,74.95
2022-08-05T09:33:09.904Z,75.05
2022-08-05T09:34:10.386Z,74.95
2022-08-05T09:35:08.830Z,75.18
2022-08-05T09:36:11.771Z,75.68
2022-08-05T09:37:15.266Z,76.18
2022-08-05T09:38:17.089Z,76.61
2022-08-05T09:39:16.591Z,76.91
2022-08-05T09:40:09.806Z,76.57
2022-08-05T09:41:08.765Z,77.08
2022-08-05T09:42:08.717Z,77.25
2022-08-05T09:43:08.762Z,77.70
2022-08-05T09:44:08.703Z,77.67
2022-08-05T09:46:02.693Z,76.14
2022-08-05T09:46:09.662Z,75.21
2022-08-05T09:47:12.436Z,75.31
2022-08-05T09:48:09.703Z,75.21
2022-08-05T09:49:19.380Z,74.88
2022-08-05T09:50:10.607Z,74.98
2022-08-05T09:51:15.304Z,73.85
2022-08-05T09:52:09.581Z,72.92
2022-08-05T09:53:08.737Z,71.47
2022-08-05T09:54:09.337Z,70.84
2022-08-05T09:55:56.675Z,70.90
2022-08-05T09:56:13.424Z,69.75
2022-08-05T09:57:23.375Z,70.54
2022-08-05T09:58:09.518Z,70.84
2022-08-05T09:59:08.472Z,69.78
2022-08-05T10:00:08.467Z,68.30
2022-08-05T10:01:15.151Z,64.78
2022-08-05T10:02:09.452Z,64.03
2022-08-05T10:03:08.408Z,63.09
2022-08-05T10:04:10.446Z,60.10
2022-08-05T10:05:08.394Z,60.42
2022-08-05T10:06:15.609Z,61.08
2022-08-05T10:07:20.332Z,60.63
2022-08-05T10:08:10.709Z,60.92
2022-08-05T10:09:09.333Z,59.78
2022-08-05T10:10:15.178Z,60.92
2022-08-05T10:11:09.296Z,61.11
2022-08-05T10:12:30.338Z,61.54
2022-08-05T10:13:09.832Z,60.75
2022-08-05T10:14:08.248Z,60.63
2022-08-05T10:15:08.249Z,59.44
2022-08-05T10:16:08.207Z,58.80
2022-08-05T10:17:08.168Z,58.05
2022-08-05T10:18:09.168Z,57.43
2022-08-05T10:19:09.119Z,58.00
2022-08-05T10:20:11.003Z,56.88
2022-08-05T10:21:11.775Z,58.58
2022-08-05T10:22:09.175Z,58.89
2022-08-05T10:23:33.890Z,56.38
2022-08-05T10:24:10.723Z,52.81
2022-08-05T10:25:09.084Z,52.66
2022-08-05T10:26:08.102Z,51.86
2022-08-05T10:27:09.157Z,52.12
2022-08-05T10:28:13.381Z,52.22
2022-08-05T10:29:09.053Z,52.78
2022-08-05T10:32:48.183Z,51.49
2022-08-05T10:32:54.723Z,52.91
2022-08-05T10:33:02.199Z,52.66
2022-08-05T10:33:14.770Z,53.12
2022-08-05T10:34:09.005Z,55.80
2022-08-05T10:35:07.926Z,55.85
2022-08-05T10:36:07.899Z,54.44
2022-08-05T10:37:07.916Z,55.86
2022-08-05T10:38:08.255Z,57.29
2022-08-05T10:39:11.517Z,58.11
2022-08-05T10:40:17.867Z,58.14
2022-08-05T10:41:08.915Z,58.65
2022-08-05T10:42:07.806Z,60.20
2022-08-05T10:43:07.837Z,58.53
2022-08-05T10:44:07.847Z,58.95
2022-08-05T10:45:09.793Z,59.44
2022-08-05T10:46:08.783Z,59.34
2022-08-05T10:47:10.146Z,60.50
2022-08-05T10:48:30.990Z,59.84
2022-08-05T10:49:10.531Z,61.87
2022-08-05T10:50:20.687Z,61.87
2022-08-05T10:51:21.845Z,60.79
2022-08-05T10:52:10.580Z,60.79
2022-08-05T10:53:07.682Z,59.61
2022-08-05T10:54:28.126Z,60.33
2022-08-05T10:55:08.636Z,59.51
2022-08-05T10:56:21.301Z,60.72
2022-08-05T10:57:08.605Z,60.72
2022-08-05T10:58:07.647Z,59.54
2022-08-05T10:59:12.544Z,61.05
2022-08-05T11:00:13.276Z,61.18
2022-08-05T11:01:08.563Z,62.22
2022-08-05T11:02:07.657Z,63.17
2022-08-05T11:03:24.776Z,62.90
2022-08-05T11:04:08.542Z,64.35
2022-08-05T11:05:07.500Z,64.78
2022-08-05T11:06:08.559Z,65.00
2022-08-05T11:07:08.477Z,66.46
2022-08-05T11:08:33.846Z,67.28
2022-08-05T11:09:09.464Z,68.20
2022-08-05T11:10:09.991Z,69.32
2022-08-05T11:11:14.606Z,69.26
2022-08-05T11:12:09.512Z,69.49
2022-08-05T11:13:07.563Z,70.72
2022-08-05T11:14:07.392Z,71.01
2022-08-05T11:15:19.262Z,71.94
2022-08-05T11:16:08.363Z,72.77
2022-08-05T11:17:57.583Z,72.21
2022-08-05T11:18:09.706Z,72.61
2022-08-05T11:20:09.878Z,73.28
2022-08-05T11:20:10.893Z,73.54
2022-08-05T11:21:11.794Z,73.44
2022-08-05T11:22:07.247Z,73.87
2022-08-05T11:23:10.389Z,73.77
2022-08-05T11:24:30.609Z,73.47
2022-08-05T11:26:03.017Z,73.87
2022-08-05T11:26:08.790Z,74.04
2022-08-05T11:27:07.166Z,73.74
2022-08-05T11:28:07.159Z,73.64
2022-08-05T11:29:13.947Z,73.50
2022-08-05T11:30:09.157Z,73.11
2022-08-05T11:31:07.120Z,73.30
2022-08-05T11:32:07.076Z,73.04
2022-08-05T11:33:07.071Z,73.00
2022-08-05T11:34:08.282Z,73.50
2022-08-05T11:35:07.049Z,73.24
2022-08-05T11:36:08.661Z,72.85
2022-08-05T11:38:28.420Z,73.34
2022-08-05T11:38:30.566Z,73.24
2022-08-05T11:39:08.062Z,73.28
2022-08-05T11:40:07.003Z,72.98
2022-08-05T11:41:35.146Z,73.28
2022-08-05T11:42:07.914Z,72.58
2022-08-05T11:43:06.950Z,72.68
2022-08-05T11:44:08.243Z,72.98
2022-08-05T11:45:23.176Z,73.28
2022-08-05T11:46:23.396Z,73.08
2022-08-05T11:47:14.230Z,73.21
2022-08-05T11:48:07.891Z,73.77
2022-08-05T11:49:08.039Z,73.61
2022-08-05T11:50:06.790Z,73.21
2022-08-05T11:51:06.779Z,73.51
2022-08-05T11:52:11.412Z,73.51
2022-08-05T11:53:10.027Z,73.31
2022-08-05T11:54:06.782Z,73.41
2022-08-05T11:55:07.493Z,73.41
2022-08-05T11:56:06.734Z,74.01
2022-08-05T11:57:08.778Z,74.04
2022-08-05T11:58:09.112Z,75.44
2022-08-05T11:59:13.635Z,75.48
2022-08-05T12:00:07.641Z,74.68
2022-08-05T12:01:08.398Z,75.51
2022-08-05T12:02:06.628Z,75.41
2022-08-05T12:03:07.624Z,75.35
2022-08-05T12:04:06.631Z,75.55
2022-08-05T12:05:18.058Z,75.65
2022-08-05T12:06:10.044Z,76.58
2022-08-05T12:07:06.546Z,76.68
2022-08-05T12:08:10.959Z,77.12
2022-08-05T12:09:06.539Z,76.82
2022-08-05T12:10:09.578Z,77.22
2022-08-05T12:11:08.530Z,77.45
2022-08-05T12:12:06.447Z,77.56
2022-08-05T12:13:16.310Z,78.59
2022-08-05T12:14:07.546Z,78.59
2022-08-05T12:15:06.405Z,78.49
2022-08-05T12:16:14.407Z,78.49
2022-08-05T12:18:00.542Z,78.23
2022-08-05T12:18:10.481Z,78.33
2022-08-05T12:19:08.241Z,79.13
2022-08-05T12:20:25.399Z,79.03
2022-08-05T12:21:07.306Z,78.73
2022-08-05T12:22:09.602Z,79.33
2022-08-05T12:23:06.245Z,80.03
2022-08-05T12:24:07.220Z,78.93
2022-08-05T12:25:06.261Z,79.63
2022-08-05T12:26:06.197Z,78.83
2022-08-05T12:27:09.647Z,78.47
2022-08-05T12:28:07.154Z,78.56
2022-08-05T12:29:09.508Z,78.77
2022-08-05T12:30:06.151Z,78.41
2022-08-05T12:31:06.161Z,79.00
2022-08-05T12:32:07.542Z,79.21
2022-08-05T12:33:07.269Z,79.10
2022-08-05T12:34:07.106Z,79.10
2022-08-05T12:35:06.091Z,79.00
2022-08-05T12:36:07.977Z,79.14
2022-08-05T12:37:06.010Z,78.34
2022-08-05T12:38:06.000Z,79.21
2022-08-05T12:39:07.039Z,78.54
2022-08-05T12:40:10.850Z,78.60
2022-08-05T12:41:12.293Z,78.44
2022-08-05T12:42:08.363Z,77.64
2022-08-05T12:43:05.903Z,78.64
2022-08-05T12:44:05.946Z,78.74
2022-08-05T12:45:08.715Z,78.64
2022-08-05T12:46:05.864Z,79.18
2022-08-05T12:47:05.859Z,78.78
2022-08-05T12:48:17.624Z,79.28
2022-08-05T12:49:13.853Z,78.88
2022-08-05T12:50:07.332Z,78.98
2022-08-05T12:51:06.771Z,78.98
2022-08-05T12:52:12.422Z,78.88
2022-08-05T12:53:06.765Z,79.08